Time;durP1;ratioP1;P1;durP2;ratioP2;P2;SDS_P1;SDS_P2;PMS_P1;PMS_P2;Temp;Humidity;BMP_temperature;BMP_pressure;BME280_temperature;BME280_humidity;BME280_pressure;Samples;Min_cycle;Max_cycle;Signal;HPM_P1;HPM_P2
2024/04/24 00:00:45;;;;;;;;;;;;;;;;;;5310373;26;20612;-83
2024/04/24 00:03:11;;;;;;;;;;;;;;;;;;5320946;26;19925;-83
2024/04/24 00:05:37;;;;;;;;;;;;;;;;;;5317736;26;19978;-83
2024/04/24 00:08:03;;;;;;;;;;;;;;;;;;5339821;26;19933;-83
2024/04/24 00:10:29;;;;;;;;;;;;;;;;;;5349011;26;20392;-82
2024/04/24 00:12:55;;;;;;;;;;;;;;;;;;5343750;26;19926;-83
2024/04/24 00:15:21;;;;;;;;;;;;;;;;;;5318138;26;19925;-83
2024/04/24 00:17:47;;;;;;;;;;;;;;;;;;5310326;26;20021;-82
2024/04/24 00:20:13;;;;;;;;;;;;;;;;;;5289259;26;19942;-82
2024/04/24 00:22:39;;;;;;;;;;;;;;;;;;5285053;26;19948;-82
2024/04/24 00:25:05;;;;;;;;;;;;;;;;;;5295223;26;19926;-82
2024/04/24 00:27:31;;;;;;;;;;;;;;;;;;5281884;26;19926;-83
2024/04/24 00:29:57;;;;;;;;;;;;;;;;;;5277623;26;19934;-83
2024/04/24 00:32:23;;;;;;;;;;;;;;;;;;5304966;26;20697;-83
2024/04/24 00:34:49;;;;;;;;;;;;;;;;;;5279880;26;19926;-83
2024/04/24 00:37:15;;;;;;;;;;;;;;;;;;5279865;26;19926;-84
2024/04/24 00:39:41;;;;;;;;;;;;;;;;;;5283687;26;20004;-83
2024/04/24 00:42:07;;;;;;;;;;;;;;;;;;5283678;26;21825;-83
2024/04/24 00:44:33;;;;;;;;;;;;;;;;;;5282734;26;19933;-83
2024/04/24 00:46:59;;;;;;;;;;;;;;;;;;5281256;26;19938;-83
2024/04/24 00:49:25;;;;;;;;;;;;;;;;;;5279084;26;19927;-83
2024/04/24 00:51:51;;;;;;;;;;;;;;;;;;5287582;26;19990;-83
2024/04/24 00:54:17;;;;;;;;;;;;;;;;;;5282777;26;19966;-81
2024/04/24 00:56:43;;;;;;;;;;;;;;;;;;5281326;26;19945;-83
2024/04/24 00:59:09;;;;;;;;;;;;;;;;;;5284081;26;20460;-83
2024/04/24 01:01:35;;;;;;;;;;;;;;;;;;5273267;26;20364;-83
2024/04/24 01:04:01;;;;;;;;;;;;;;;;;;5275200;26;19927;-84
2024/04/24 01:06:27;;;;;;;;;;;;;;;;;;5272193;26;19925;-83
2024/04/24 01:08:52;;;;;;;;;;;;;;;;;;5278749;26;19926;-85
2024/04/24 01:11:18;;;;;;;;;;;;;;;;;;5271977;26;19939;-83
2024/04/24 01:13:44;;;;;;;;;;;;;;;;;;5273649;26;19933;-83
2024/04/24 01:16:10;;;;;;;;;;;;;;;;;;5270825;26;19935;-83
2024/04/24 01:18:36;;;;;;;;;;;;;;;;;;5314653;26;19925;-83
2024/04/24 01:21:02;;;;;;;;;;;;;;;;;;5302418;26;19933;-81
2024/04/24 01:23:28;;;;;;;;;;;;;;;;;;5320181;26;20514;-84
2024/04/24 01:25:55;;;;;;;;;;;;;;;;;;5341714;26;19938;-83
2024/04/24 01:28:21;;;;;;;;;;;;;;;;;;5297349;26;20475;-83
2024/04/24 01:30:48;;;;;;;;;;;;;;;;;;5293195;26;19933;-83
2024/04/24 01:33:14;;;;;;;;;;;;;;;;;;5319802;26;20504;-82
2024/04/24 01:35:40;;;;;;;;;;;;;;;;;;5322456;26;19966;-83
2024/04/24 01:38:06;;;;;;;;;;;;;;;;;;5295500;26;19981;-82
2024/04/24 01:40:32;;;;;;;;;;;;;;;;;;5306973;26;19926;-81
2024/04/24 01:42:58;;;;;;;;;;;;;;;;;;5302381;26;19945;-83
2024/04/24 01:45:24;;;;;;;;;;;;;;;;;;5297632;26;19931;-82
2024/04/24 01:47:50;;;;;;;;;;;;;;;;;;5302636;26;19926;-82
2024/04/24 01:50:16;;;;;;;;;;;;;;;;;;5295209;26;20479;-83
2024/04/24 01:52:43;;;;;;;;;;;;;;;;;;5332762;26;20232;-83
2024/04/24 01:55:09;;;;;;;;;;;;;;;;;;5290558;26;19926;-83
2024/04/24 01:57:35;;;;;;;;;;;;;;;;;;5323679;26;19932;-82
2024/04/24 02:00:01;;;;;;;;;;;;;;;;;;5321590;26;20379;-83
2024/04/24 02:02:27;;;;;;;;;;;;;;;;;;5322593;26;19969;-83
2024/04/24 02:04:53;;;;;;;;;;;;;;;;;;5293711;26;19933;-83
2024/04/24 02:07:19;;;;;;;;;;;;;;;;;;5317555;26;20824;-84
2024/04/24 02:09:45;;;;;;;;;;;;;;;;;;5302119;26;19985;-84
2024/04/24 02:12:11;;;;;;;;;;;;;;;;;;5296692;26;19938;-82
2024/04/24 02:14:37;;;;;;;;;;;;;;;;;;5318477;26;19961;-83
2024/04/24 02:17:03;;;;;;;;;;;;;;;;;;5296718;26;19925;-83
2024/04/24 02:19:30;;;;;;;;;;;;;;;;;;5330491;26;19925;-83
2024/04/24 02:21:56;;;;;;;;;;;;;;;;;;5324910;26;19936;-83
2024/04/24 02:27:08;;;;;;;;;;;;;;;;;;5320594;26;19929;-82
2024/04/24 02:29:36;;;;;;;;;;;;;;;;;;5312235;26;19933;-82
2024/04/24 02:32:01;;;;;;;;;;;;;;;;;;5286290;26;19926;-83
2024/04/24 02:34:27;;;;;;;;;;;;;;;;;;5316498;26;20132;-83
2024/04/24 02:36:53;;;;;;;;;;;;;;;;;;5321794;26;20096;-83
2024/04/24 02:39:19;;;;;;;;;;;;;;;;;;5310328;26;19926;-83
2024/04/24 02:41:45;;;;;;;;;;;;;;;;;;5324834;26;20689;-83
2024/04/24 02:44:12;;;;;;;;;;;;;;;;;;5314627;26;19942;-83
2024/04/24 02:46:40;;;;;;;;;;;;;;;;;;5299184;26;19926;-82
2024/04/24 02:49:06;;;;;;;;;;;;;;;;;;5325682;26;19949;-83
2024/04/24 02:51:32;;;;;;;;;;;;;;;;;;5301373;26;19941;-84
2024/04/24 02:53:58;;;;;;;;;;;;;;;;;;5305466;26;19933;-84
2024/04/24 02:56:24;;;;;;;;;;;;;;;;;;5323405;26;19940;-83
2024/04/24 02:58:50;;;;;;;;;;;;;;;;;;5301109;26;19926;-83
2024/04/24 03:01:16;;;;;;;;;;;;;;;;;;5292020;26;21438;-83
2024/04/24 03:03:42;;;;;;;;;;;;;;;;;;5321776;26;19933;-83
2024/04/24 03:06:08;;;;;;;;;;;;;;;;;;5321026;26;19933;-85
2024/04/24 03:08:34;;;;;;;;;;;;;;;;;;5329225;26;20671;-83
2024/04/24 03:11:00;;;;;;;;;;;;;;;;;;5306181;26;19925;-84
2024/04/24 03:13:27;;;;;;;;;;;;;;;;;;5301701;26;19968;-83
2024/04/24 03:15:53;;;;;;;;;;;;;;;;;;5304986;26;19933;-83
2024/04/24 03:18:19;;;;;;;;;;;;;;;;;;5277568;26;19951;-84
2024/04/24 03:20:45;;;;;;;;;;;;;;;;;;5274846;26;19926;-84
2024/04/24 03:23:12;;;;;;;;;;;;;;;;;;5268412;26;19934;-83
2024/04/24 03:25:38;;;;;;;;;;;;;;;;;;5268406;26;19927;-83
2024/04/24 03:28:04;;;;;;;;;;;;;;;;;;5266414;26;19958;-82
2024/04/24 03:30:30;;;;;;;;;;;;;;;;;;5272677;26;19933;-83
2024/04/24 03:32:56;;;;;;;;;;;;;;;;;;5273459;26;20842;-83
2024/04/24 03:35:22;;;;;;;;;;;;;;;;;;5265415;26;19938;-82
2024/04/24 03:37:48;;;;;;;;;;;;;;;;;;5271953;26;19938;-83
2024/04/24 03:40:14;;;;;;;;;;;;;;;;;;5266094;26;19933;-83
2024/04/24 03:42:41;;;;;;;;;;;;;;;;;;5270436;26;19943;-83
2024/04/24 03:45:07;;;;;;;;;;;;;;;;;;5269399;26;19925;-83
2024/04/24 03:47:33;;;;;;;;;;;;;;;;;;5298714;26;19934;-82
2024/04/24 03:49:59;;;;;;;;;;;;;;;;;;5272884;26;20482;-83
2024/04/24 03:52:25;;;;;;;;;;;;;;;;;;5265903;26;19969;-83
2024/04/24 03:54:51;;;;;;;;;;;;;;;;;;5273393;26;19937;-83
2024/04/24 03:57:17;;;;;;;;;;;;;;;;;;5263490;26;19941;-84
2024/04/24 03:59:43;;;;;;;;;;;;;;;;;;5300194;26;19959;-83
2024/04/24 04:02:09;;;;;;;;;;;;;;;;;;5268945;26;19927;-83
2024/04/24 04:04:35;;;;;;;;;;;;;;;;;;5273982;26;20718;-83
2024/04/24 04:07:01;;;;;;;;;;;;;;;;;;5276183;26;19927;-82
2024/04/24 04:09:27;;;;;;;;;;;;;;;;;;5268790;26;19926;-82
2024/04/24 04:11:53;;;;;;;;;;;;;;;;;;5275656;26;19926;-83
2024/04/24 04:14:19;;;;;;;;;;;;;;;;;;5270237;26;20394;-85
2024/04/24 04:16:44;;;;;;;;;;;;;;;;;;5288626;26;19934;-81
2024/04/24 04:19:10;;;;;;;;;;;;;;;;;;5324471;26;19926;-82
2024/04/24 04:21:36;;;;;;;;;;;;;;;;;;5306237;26;20032;-83
2024/04/24 04:24:02;;;;;;;;;;;;;;;;;;5299571;26;21143;-81
2024/04/24 04:26:28;;;;;;;;;;;;;;;;;;5303921;26;19934;-82
2024/04/24 04:28:54;;;;;;;;;;;;;;;;;;5298087;26;19945;-83
2024/04/24 04:31:20;;;;;;;;;;;;;;;;;;5297718;26;19941;-82
2024/04/24 04:33:46;;;;;;;;;;;;;;;;;;5328877;26;19945;-83
2024/04/24 04:36:12;;;;;;;;;;;;;;;;;;5294822;26;19926;-83
2024/04/24 04:38:38;;;;;;;;;;;;;;;;;;5297300;26;19933;-83
2024/04/24 04:41:05;;;;;;;;;;;;;;;;;;5293450;26;19933;-82
2024/04/24 04:43:31;;;;;;;;;;;;;;;;;;5325109;26;20384;-83
2024/04/24 04:45:57;;;;;;;;;;;;;;;;;;5296443;26;19926;-81
2024/04/24 04:48:23;;;;;;;;;;;;;;;;;;5287564;26;19934;-84
2024/04/24 04:50:49;;;;;;;;;;;;;;;;;;5293656;26;19938;-84
2024/04/24 04:53:15;;;;;;;;;;;;;;;;;;5316008;26;19980;-82
2024/04/24 04:55:41;;;;;;;;;;;;;;;;;;5289347;26;20757;-82
2024/04/24 04:58:07;;;;;;;;;;;;;;;;;;5294476;26;19938;-83
2024/04/24 05:00:33;;;;;;;;;;;;;;;;;;5320266;26;19954;-84
2024/04/24 05:02:59;;;;;;;;;;;;;;;;;;5315404;26;19994;-84
2024/04/24 05:05:25;;;;;;;;;;;;;;;;;;5295144;26;19997;-83
2024/04/24 05:07:51;;;;;;;;;;;;;;;;;;5313536;26;19925;-83
2024/04/24 05:10:17;;;;;;;;;;;;;;;;;;5290233;26;20258;-83
2024/04/24 05:12:43;;;;;;;;;;;;;;;;;;5318722;26;20021;-82
2024/04/24 05:15:09;;;;;;;;;;;;;;;;;;5292549;26;19941;-82
2024/04/24 05:17:35;;;;;;;;;;;;;;;;;;5302774;26;19986;-84
2024/04/24 05:20:01;;;;;;;;;;;;;;;;;;5308062;26;19938;-84
2024/04/24 05:22:33;;;;;;;;;;;;;;;;;;5291576;26;20957;-83
2024/04/24 05:24:59;;;;;;;;;;;;;;;;;;5295723;26;19926;-83
2024/04/24 05:30:10;;;;;;;;;;;;;;;;;;5287302;26;19929;-83
2024/04/24 05:32:36;;;;;;;;;;;;;;;;;;5291707;26;19927;-83
2024/04/24 05:35:02;;;;;;;;;;;;;;;;;;5290700;26;19926;-83
2024/04/24 05:37:28;;;;;;;;;;;;;;;;;;5295077;26;19926;-83
2024/04/24 05:39:54;;;;;;;;;;;;;;;;;;5298124;26;19933;-84
2024/04/24 05:42:20;;;;;;;;;;;;;;;;;;5288667;26;20393;-85
2024/04/24 05:44:46;;;;;;;;;;;;;;;;;;5298442;26;19999;-84
2024/04/24 05:47:12;;;;;;;;;;;;;;;;;;5292458;26;20512;-84
2024/04/24 05:49:38;;;;;;;;;;;;;;;;;;5296573;26;19926;-85
2024/04/24 05:52:04;;;;;;;;;;;;;;;;;;5290850;26;19995;-84
2024/04/24 05:54:30;;;;;;;;;;;;;;;;;;5291302;26;19940;-84
2024/04/24 05:56:56;;;;;;;;;;;;;;;;;;5292316;26;19938;-84
2024/04/24 05:59:22;;;;;;;;;;;;;;;;;;5291935;26;19992;-84
2024/04/24 06:01:48;;;;;;;;;;;;;;;;;;5290005;26;19926;-83
2024/04/24 06:04:14;;;;;;;;;;;;;;;;;;5289834;26;19926;-83
2024/04/24 06:06:40;;;;;;;;;;;;;;;;;;5295839;26;19931;-83
2024/04/24 06:09:06;;;;;;;;;;;;;;;;;;5293292;26;19926;-82
2024/04/24 06:11:32;;;;;;;;;;;;;;;;;;5293878;26;20000;-83
2024/04/24 06:13:58;;;;;;;;;;;;;;;;;;5296336;26;19934;-83
2024/04/24 06:16:24;;;;;;;;;;;;;;;;;;5288262;26;20024;-82
2024/04/24 06:18:50;;;;;;;;;;;;;;;;;;5292900;26;19926;-82
2024/04/24 06:21:16;;;;;;;;;;;;;;;;;;5293189;26;19934;-82
2024/04/24 06:23:42;;;;;;;;;;;;;;;;;;5293173;26;19927;-83
2024/04/24 06:26:08;;;;;;;;;;;;;;;;;;5293979;26;19932;-83
2024/04/24 06:28:34;;;;;;;;;;;;;;;;;;5300100;26;19993;-84
2024/04/24 06:31:00;;;;;;;;;;;;;;;;;;5301379;26;22799;-85
2024/04/24 06:33:26;;;;;;;;;;;;;;;;;;5290547;26;19950;-85
2024/04/24 06:35:52;;;;;;;;;;;;;;;;;;5303229;26;20847;-83
2024/04/24 06:38:19;;;;;;;;;;;;;;;;;;5300760;26;19966;-83
2024/04/24 06:40:45;;;;;;;;;;;;;;;;;;5308058;26;19926;-86
2024/04/24 06:43:12;;;;;;;;;;;;;;;;;;5302910;26;19977;-83
2024/04/24 06:45:39;;;;;;;;;;;;;;;;;;5305842;26;19926;-83
2024/04/24 06:48:05;;;;;;;;;;;;;;;;;;5301248;26;20497;-86
2024/04/24 06:50:31;;;;;;;;;;;;;;;;;;5309279;26;19941;-84
2024/04/24 06:52:59;;;;;;;;;;;;;;;;;;5328383;26;19926;-92
2024/04/24 06:55:25;;;;;;;;;;;;;;;;;;5332755;26;19927;-91
2024/04/24 06:57:52;;;;;;;;;;;;;;;;;;5334081;26;19926;-89
2024/04/24 07:00:18;;;;;;;;;;;;;;;;;;5316820;26;19926;-89
2024/04/24 07:02:43;;;;;;;;;;;;;;;;;;5317506;26;19958;-88
2024/04/24 07:05:09;;;;;;;;;;;;;;;;;;5308588;26;19933;-88
2024/04/24 07:07:36;;;;;;;;;;;;;;;;;;5314531;26;20588;-85
2024/04/24 07:10:02;;;;;;;;;;;;;;;;;;5312547;26;20494;-87
2024/04/24 07:12:28;;;;;;;;;;;;;;;;;;5305785;26;19933;-86
2024/04/24 07:14:54;;;;;;;;;;;;;;;;;;5311223;26;19933;-86
2024/04/24 07:17:21;;;;;;;;;;;;;;;;;;5313843;26;20758;-87
2024/04/24 07:19:47;;;;;;;;;;;;;;;;;;5310647;26;19925;-86
2024/04/24 07:22:12;;;;;;;;;;;;;;;;;;5301903;26;20458;-86
2024/04/24 07:24:38;;;;;;;;;;;;;;;;;;5315837;26;19938;-88
2024/04/24 07:27:04;;;;;;;;;;;;;;;;;;5336426;26;19956;-90
2024/04/24 07:29:30;;;;;;;;;;;;;;;;;;5307013;26;19990;-86
2024/04/24 07:31:58;;;;;;;;;;;;;;;;;;5318297;26;20471;-86
2024/04/24 07:34:24;;;;;;;;;;;;;;;;;;5339970;26;19933;-86
2024/04/24 07:36:49;;;;;;;;;;;;;;;;;;5334411;26;19930;-87
2024/04/24 07:39:16;;;;;;;;;;;;;;;;;;5323316;26;19932;-87
2024/04/24 07:41:42;;;;;;;;;;;;;;;;;;5340273;26;19933;-91
2024/04/24 07:44:08;;;;;;;;;;;;;;;;;;5320888;26;19925;-89
2024/04/24 07:46:34;;;;;;;;;;;;;;;;;;5334466;26;20392;-91
2024/04/24 07:49:02;;;;;;;;;;;;;;;;;;5347407;26;19968;-89
2024/04/24 07:51:30;;;;;;;;;;;;;;;;;;5357914;26;20030;-90
2024/04/24 07:53:56;;;;;;;;;;;;;;;;;;5365696;26;19940;-91
2024/04/24 07:56:24;;;;;;;;;;;;;;;;;;5331443;26;20003;-86
2024/04/24 07:58:50;;;;;;;;;;;;;;;;;;5333217;26;19937;-85
2024/04/24 08:01:18;;;;;;;;;;;;;;;;;;5324129;26;20413;-85
2024/04/24 08:03:44;;;;;;;;;;;;;;;;;;5310006;26;19933;-85
2024/04/24 08:06:10;;;;;;;;;;;;;;;;;;5300367;26;19958;-85
2024/04/24 08:08:36;;;;;;;;;;;;;;;;;;5306979;26;19933;-84
2024/04/24 08:11:02;;;;;;;;;;;;;;;;;;5329198;26;19934;-84
2024/04/24 08:13:28;;;;;;;;;;;;;;;;;;5331889;26;20388;-84
2024/04/24 08:15:54;;;;;;;;;;;;;;;;;;5332575;26;19933;-85
2024/04/24 08:18:20;;;;;;;;;;;;;;;;;;5324405;26;19990;-85
2024/04/24 08:20:46;;;;;;;;;;;;;;;;;;5326700;26;19926;-84
2024/04/24 08:23:12;;;;;;;;;;;;;;;;;;5305466;26;19933;-84
2024/04/24 08:25:38;;;;;;;;;;;;;;;;;;5334365;26;19933;-86
2024/04/24 08:28:04;;;;;;;;;;;;;;;;;;5335772;26;19926;-85
2024/04/24 08:30:30;;;;;;;;;;;;;;;;;;5330331;26;20036;-84
2024/04/24 08:32:56;;;;;;;;;;;;;;;;;;5331851;26;19934;-86
2024/04/24 08:35:22;;;;;;;;;;;;;;;;;;5314446;26;20384;-84
2024/04/24 08:37:48;;;;;;;;;;;;;;;;;;5340796;26;19925;-85
2024/04/24 08:40:14;;;;;;;;;;;;;;;;;;5310876;26;20916;-85
2024/04/24 08:42:40;;;;;;;;;;;;;;;;;;5303602;26;19941;-86
2024/04/24 08:45:06;;;;;;;;;;;;;;;;;;5305179;26;19940;-86
2024/04/24 08:47:32;;;;;;;;;;;;;;;;;;5330994;26;19944;-85
2024/04/24 08:49:58;;;;;;;;;;;;;;;;;;5338646;26;19926;-86
2024/04/24 08:52:24;;;;;;;;;;;;;;;;;;5327413;26;19933;-86
2024/04/24 08:54:50;;;;;;;;;;;;;;;;;;5335697;26;19933;-86
2024/04/24 08:57:16;;;;;;;;;;;;;;;;;;5310073;26;19926;-86
2024/04/24 08:59:42;;;;;;;;;;;;;;;;;;5310898;26;19945;-84
2024/04/24 09:02:08;;;;;;;;;;;;;;;;;;5310715;26;19937;-86
2024/04/24 09:04:34;;;;;;;;;;;;;;;;;;5313930;26;19926;-86
2024/04/24 09:07:00;;;;;;;;;;;;;;;;;;5309599;26;19925;-86
2024/04/24 09:09:26;;;;;;;;;;;;;;;;;;5308400;26;19941;-86
2024/04/24 09:11:52;;;;;;;;;;;;;;;;;;5330232;26;19965;-88
2024/04/24 09:14:18;;;;;;;;;;;;;;;;;;5309676;26;19926;-86
2024/04/24 09:16:44;;;;;;;;;;;;;;;;;;5334422;26;19933;-86
2024/04/24 09:19:10;;;;;;;;;;;;;;;;;;5261577;26;19933;-88
2024/04/24 09:21:36;;;;;;;;;;;;;;;;;;5268900;26;19927;-87
2024/04/24 09:24:02;;;;;;;;;;;;;;;;;;5261788;26;19934;-86
2024/04/24 09:26:28;;;;;;;;;;;;;;;;;;5258990;27;20892;-83
2024/04/24 09:28:54;;;;;;;;;;;;;;;;;;5261689;27;19927;-88
2024/04/24 09:31:20;;;;;;;;;;;;;;;;;;5263726;27;19927;-85
2024/04/24 09:33:46;;;;;;;;;;;;;;;;;;5267229;26;19938;-86
2024/04/24 09:36:12;;;;;;;;;;;;;;;;;;5257728;26;19935;-83
2024/04/24 09:38:38;;;;;;;;;;;;;;;;;;5255963;27;21289;-86
2024/04/24 09:41:05;;;;;;;;;;;;;;;;;;5259373;26;19933;-85
2024/04/24 09:43:31;;;;;;;;;;;;;;;;;;5261646;27;20763;-90
2024/04/24 09:45:57;;;;;;;;;;;;;;;;;;5263525;27;19934;-86
2024/04/24 09:48:23;;;;;;;;;;;;;;;;;;5261673;26;19935;-86
2024/04/24 09:50:49;;;;;;;;;;;;;;;;;;5260321;27;20539;-87
2024/04/24 09:53:15;;;;;;;;;;;;;;;;;;5254519;26;19934;-86
2024/04/24 09:55:41;;;;;;;;;;;;;;;;;;5268704;27;20730;-86
2024/04/24 09:58:07;;;;;;;;;;;;;;;;;;5264230;26;19927;-86
2024/04/24 10:00:33;;;;;;;;;;;;;;;;;;5265321;27;19933;-85
2024/04/24 10:02:59;;;;;;;;;;;;;;;;;;5269182;27;19934;-83
2024/04/24 10:05:25;;;;;;;;;;;;;;;;;;5254372;27;19930;-85
2024/04/24 10:07:51;;;;;;;;;;;;;;;;;;5260806;27;19927;-85
2024/04/24 10:10:17;;;;;;;;;;;;;;;;;;5267320;26;20387;-84
2024/04/24 10:12:44;;;;;;;;;;;;;;;;;;5275409;26;19934;-85
2024/04/24 10:15:10;;;;;;;;;;;;;;;;;;5266996;26;20022;-87
2024/04/24 10:17:36;;;;;;;;;;;;;;;;;;5278890;26;19926;-86
2024/04/24 10:20:03;;;;;;;;;;;;;;;;;;5308714;26;20855;-86
2024/04/24 10:22:29;;;;;;;;;;;;;;;;;;5341319;26;19926;-86
2024/04/24 10:24:55;;;;;;;;;;;;;;;;;;5309234;26;19926;-86
2024/04/24 10:27:21;;;;;;;;;;;;;;;;;;5304086;26;20005;-85
2024/04/24 10:29:47;;;;;;;;;;;;;;;;;;5308381;26;20632;-85
2024/04/24 10:32:13;;;;;;;;;;;;;;;;;;5300275;26;19925;-86
2024/04/24 10:34:39;;;;;;;;;;;;;;;;;;5308179;26;19950;-85
2024/04/24 10:37:05;;;;;;;;;;;;;;;;;;5303640;26;20392;-86
2024/04/24 10:39:31;;;;;;;;;;;;;;;;;;5306322;26;19970;-86
2024/04/24 10:41:57;;;;;;;;;;;;;;;;;;5307553;26;19934;-87
2024/04/24 10:44:23;;;;;;;;;;;;;;;;;;5307405;26;20911;-86
2024/04/24 10:46:49;;;;;;;;;;;;;;;;;;5317021;26;19934;-85
2024/04/24 10:49:16;;;;;;;;;;;;;;;;;;5305493;26;19973;-85
2024/04/24 10:51:42;;;;;;;;;;;;;;;;;;5303351;26;19934;-86
2024/04/24 10:54:08;;;;;;;;;;;;;;;;;;5298754;26;19930;-84
2024/04/24 10:56:35;;;;;;;;;;;;;;;;;;5304545;26;19927;-85
2024/04/24 10:59:01;;;;;;;;;;;;;;;;;;5306844;26;19933;-83
2024/04/24 11:01:27;;;;;;;;;;;;;;;;;;5303262;26;19926;-83
2024/04/24 11:03:53;;;;;;;;;;;;;;;;;;5303867;26;19935;-85
2024/04/24 11:06:19;;;;;;;;;;;;;;;;;;5298991;26;20259;-88
2024/04/24 11:08:50;;;;;;;;;;;;;;;;;;5308982;26;19997;-86
2024/04/24 11:11:16;;;;;;;;;;;;;;;;;;5309163;26;19969;-85
2024/04/24 11:13:42;;;;;;;;;;;;;;;;;;5310857;26;19933;-84
2024/04/24 11:16:08;;;;;;;;;;;;;;;;;;5293786;26;19933;-86
2024/04/24 11:18:34;;;;;;;;;;;;;;;;;;5303719;26;19936;-84
2024/04/24 11:21:00;;;;;;;;;;;;;;;;;;5307054;26;19985;-87
2024/04/24 11:23:29;;;;;;;;;;;;;;;;;;5306202;26;19927;-86
2024/04/24 11:25:55;;;;;;;;;;;;;;;;;;5307973;26;19925;-86
2024/04/24 11:28:24;;;;;;;;;;;;;;;;;;5303354;26;20921;-86
2024/04/24 11:30:50;;;;;;;;;;;;;;;;;;5311225;26;20001;-87
2024/04/24 11:33:16;;;;;;;;;;;;;;;;;;5307655;26;19955;-85
2024/04/24 11:35:42;;;;;;;;;;;;;;;;;;5300585;26;19947;-84
2024/04/24 11:38:09;;;;;;;;;;;;;;;;;;5308158;26;19948;-86
2024/04/24 11:40:35;;;;;;;;;;;;;;;;;;5315768;26;19933;-89
2024/04/24 11:43:01;;;;;;;;;;;;;;;;;;5314189;26;19934;-90
2024/04/24 11:45:27;;;;;;;;;;;;;;;;;;5310525;26;20704;-85
2024/04/24 11:47:54;;;;;;;;;;;;;;;;;;5302653;26;20353;-86
2024/04/24 11:50:21;;;;;;;;;;;;;;;;;;5308586;26;20002;-87
2024/04/24 11:52:48;;;;;;;;;;;;;;;;;;5309661;26;19985;-85
2024/04/24 11:55:14;;;;;;;;;;;;;;;;;;5303688;26;20864;-89
2024/04/24 11:57:43;;;;;;;;;;;;;;;;;;5316634;26;19934;-87
2024/04/24 12:00:09;;;;;;;;;;;;;;;;;;5320524;26;19933;-90
2024/04/24 12:02:35;;;;;;;;;;;;;;;;;;5323014;26;19970;-92
2024/04/24 12:05:04;;;;;;;;;;;;;;;;;;5328767;26;19918;-89
2024/04/24 12:07:30;;;;;;;;;;;;;;;;;;5335716;26;19934;-86
2024/04/24 12:09:56;;;;;;;;;;;;;;;;;;5313106;26;19933;-83
2024/04/24 12:12:22;;;;;;;;;;;;;;;;;;5309695;26;19926;-85
2024/04/24 12:14:48;;;;;;;;;;;;;;;;;;5316579;26;19961;-86
2024/04/24 12:17:14;;;;;;;;;;;;;;;;;;5311843;26;19934;-85
2024/04/24 12:19:41;;;;;;;;;;;;;;;;;;5312676;26;19995;-88
2024/04/24 12:22:07;;;;;;;;;;;;;;;;;;5306370;26;19933;-85
2024/04/24 12:24:34;;;;;;;;;;;;;;;;;;5312256;26;20264;-83
2024/04/24 12:27:00;;;;;;;;;;;;;;;;;;5301711;26;19936;-86
2024/04/24 12:29:27;;;;;;;;;;;;;;;;;;5304052;26;19933;-84
2024/04/24 12:31:53;;;;;;;;;;;;;;;;;;5302578;26;19925;-86
2024/04/24 12:34:19;;;;;;;;;;;;;;;;;;5302436;26;19926;-86
2024/04/24 12:36:45;;;;;;;;;;;;;;;;;;5310499;26;20011;-85
2024/04/24 12:39:11;;;;;;;;;;;;;;;;;;5304137;26;19941;-85
2024/04/24 12:41:39;;;;;;;;;;;;;;;;;;5310354;26;20995;-85
2024/04/24 12:44:08;;;;;;;;;;;;;;;;;;5306451;26;20173;-85
2024/04/24 12:46:34;;;;;;;;;;;;;;;;;;5313719;26;19926;-86
2024/04/24 12:49:02;;;;;;;;;;;;;;;;;;5313656;26;20077;-86
2024/04/24 12:51:28;;;;;;;;;;;;;;;;;;5329575;26;19933;-86
2024/04/24 12:53:54;;;;;;;;;;;;;;;;;;5332362;26;20009;-86
2024/04/24 12:56:20;;;;;;;;;;;;;;;;;;5317530;26;19941;-86
2024/04/24 12:58:46;;;;;;;;;;;;;;;;;;5319818;26;19934;-87
2024/04/24 13:01:12;;;;;;;;;;;;;;;;;;5315360;26;19925;-88
2024/04/24 13:03:38;;;;;;;;;;;;;;;;;;5317501;26;19942;-87
2024/04/24 13:06:04;;;;;;;;;;;;;;;;;;5314088;26;19933;-86
2024/04/24 13:08:30;;;;;;;;;;;;;;;;;;5304606;26;19933;-87
2024/04/24 13:10:56;;;;;;;;;;;;;;;;;;5306669;26;19934;-86
2024/04/24 13:13:23;;;;;;;;;;;;;;;;;;5302055;26;19944;-85
2024/04/24 13:15:49;;;;;;;;;;;;;;;;;;5312415;26;19933;-84
2024/04/24 13:18:16;;;;;;;;;;;;;;;;;;5324784;26;19933;-85
2024/04/24 13:20:42;;;;;;;;;;;;;;;;;;5318523;26;21304;-86
2024/04/24 13:23:08;;;;;;;;;;;;;;;;;;5331935;26;19925;-85
2024/04/24 13:25:34;;;;;;;;;;;;;;;;;;5315588;26;20057;-86
2024/04/24 13:28:01;;;;;;;;;;;;;;;;;;5329211;26;19951;-87
2024/04/24 13:30:27;;;;;;;;;;;;;;;;;;5329468;26;19937;-85
2024/04/24 13:32:53;;;;;;;;;;;;;;;;;;5307099;26;19933;-85
2024/04/24 13:35:20;;;;;;;;;;;;;;;;;;5308045;26;20064;-86
2024/04/24 13:37:46;;;;;;;;;;;;;;;;;;5329424;26;19941;-86
2024/04/24 13:40:12;;;;;;;;;;;;;;;;;;5324307;26;19937;-86
2024/04/24 13:42:39;;;;;;;;;;;;;;;;;;5332251;26;19933;-86
2024/04/24 13:45:05;;;;;;;;;;;;;;;;;;5300975;26;19933;-86
2024/04/24 13:47:31;;;;;;;;;;;;;;;;;;5330205;26;19933;-86
2024/04/24 13:49:57;;;;;;;;;;;;;;;;;;5314723;26;19973;-85
2024/04/24 13:52:23;;;;;;;;;;;;;;;;;;5329549;26;20032;-86
2024/04/24 13:54:49;;;;;;;;;;;;;;;;;;5305223;26;19936;-85
2024/04/24 13:57:15;;;;;;;;;;;;;;;;;;5303766;26;19926;-86
2024/04/24 13:59:41;;;;;;;;;;;;;;;;;;5304885;26;20649;-87
2024/04/24 14:02:07;;;;;;;;;;;;;;;;;;5290564;26;19984;-86
2024/04/24 14:04:34;;;;;;;;;;;;;;;;;;5335186;26;19933;-86
2024/04/24 14:06:59;;;;;;;;;;;;;;;;;;5331018;26;19933;-86
2024/04/24 14:09:25;;;;;;;;;;;;;;;;;;5319269;26;19933;-86
2024/04/24 14:11:52;;;;;;;;;;;;;;;;;;5328141;26;20110;-85
2024/04/24 14:14:19;;;;;;;;;;;;;;;;;;5293646;26;19938;-85
2024/04/24 14:16:45;;;;;;;;;;;;;;;;;;5323931;26;19925;-86
2024/04/24 14:19:11;;;;;;;;;;;;;;;;;;5300962;26;20523;-86
2024/04/24 14:21:37;;;;;;;;;;;;;;;;;;5305731;26;19933;-87
2024/04/24 14:24:04;;;;;;;;;;;;;;;;;;5300099;26;19941;-86
2024/04/24 14:26:30;;;;;;;;;;;;;;;;;;5300034;26;19930;-85
2024/04/24 14:28:56;;;;;;;;;;;;;;;;;;5305704;26;19933;-86
2024/04/24 14:31:23;;;;;;;;;;;;;;;;;;5300915;26;19934;-86
2024/04/24 14:33:49;;;;;;;;;;;;;;;;;;5303344;26;19927;-85
2024/04/24 14:36:15;;;;;;;;;;;;;;;;;;5300818;26;19926;-86
2024/04/24 14:38:42;;;;;;;;;;;;;;;;;;5312278;26;19926;-86
2024/04/24 14:41:12;;;;;;;;;;;;;;;;;;5317853;26;19926;-87
2024/04/24 14:43:38;;;;;;;;;;;;;;;;;;5314552;26;19926;-85
2024/04/24 14:46:04;;;;;;;;;;;;;;;;;;5318099;26;19933;-86
2024/04/24 14:48:30;;;;;;;;;;;;;;;;;;5308883;26;20248;-87
2024/04/24 14:50:56;;;;;;;;;;;;;;;;;;5306818;26;19926;-87
2024/04/24 14:53:21;;;;;;;;;;;;;;;;;;5319187;26;19937;-87
2024/04/24 14:55:47;;;;;;;;;;;;;;;;;;5321287;26;20526;-87
2024/04/24 14:58:13;;;;;;;;;;;;;;;;;;5313541;26;19950;-87
2024/04/24 15:00:39;;;;;;;;;;;;;;;;;;5306320;26;19927;-87
2024/04/24 15:03:05;;;;;;;;;;;;;;;;;;5302440;26;19926;-87
2024/04/24 15:05:31;;;;;;;;;;;;;;;;;;5306412;26;19926;-88
2024/04/24 15:07:58;;;;;;;;;;;;;;;;;;5310593;26;19934;-86
2024/04/24 15:10:25;;;;;;;;;;;;;;;;;;5299623;26;19934;-89
2024/04/24 15:12:51;;;;;;;;;;;;;;;;;;5330918;26;19995;-86
2024/04/24 15:15:17;;;;;;;;;;;;;;;;;;5295945;26;19946;-86
2024/04/24 15:17:42;;;;;;;;;;;;;;;;;;5300141;26;20483;-87
2024/04/24 15:20:08;;;;;;;;;;;;;;;;;;5295469;26;19934;-88
2024/04/24 15:22:34;;;;;;;;;;;;;;;;;;5317875;26;19926;-88
2024/04/24 15:25:00;;;;;;;;;;;;;;;;;;5326745;26;19965;-89
2024/04/24 15:27:26;;;;;;;;;;;;;;;;;;5332868;26;19963;-88
2024/04/24 15:29:53;;;;;;;;;;;;;;;;;;5314656;26;20004;-77
2024/04/24 15:32:19;;;;;;;;;;;;;;;;;;5297051;26;19926;-79
2024/04/24 15:34:45;;;;;;;;;;;;;;;;;;5295728;26;20712;-79
2024/04/24 15:37:11;;;;;;;;;;;;;;;;;;5291941;26;19933;-77
2024/04/24 15:39:37;;;;;;;;;;;;;;;;;;5301240;26;19926;-79
2024/04/24 15:42:03;;;;;;;;;;;;;;;;;;5293768;26;19933;-81
2024/04/24 15:44:30;;;;;;;;;;;;;;;;;;5326494;26;19961;-83
2024/04/24 15:46:55;;;;;;;;;;;;;;;;;;5298416;26;20259;-83
2024/04/24 15:49:21;;;;;;;;;;;;;;;;;;5291724;26;19941;-84
2024/04/24 15:51:47;;;;;;;;;;;;;;;;;;5297310;26;19933;-82
2024/04/24 15:54:13;;;;;;;;;;;;;;;;;;5293444;26;20563;-83
2024/04/24 15:56:39;;;;;;;;;;;;;;;;;;5297246;26;19986;-85
2024/04/24 15:59:05;;;;;;;;;;;;;;;;;;5325542;26;20487;-84
2024/04/24 16:01:32;;;;;;;;;;;;;;;;;;5297157;26;20372;-85
2024/04/24 16:03:58;;;;;;;;;;;;;;;;;;5301433;26;19926;-86
2024/04/24 16:06:24;;;;;;;;;;;;;;;;;;5296999;26;19945;-86
2024/04/24 16:08:50;;;;;;;;;;;;;;;;;;5305796;26;19926;-85
2024/04/24 16:11:16;;;;;;;;;;;;;;;;;;5303196;26;19941;-86
2024/04/24 16:13:42;;;;;;;;;;;;;;;;;;5310397;26;19933;-87
2024/04/24 16:16:09;;;;;;;;;;;;;;;;;;5301115;26;19981;-87
2024/04/24 16:18:35;;;;;;;;;;;;;;;;;;5316177;26;19933;-87
2024/04/24 16:21:01;;;;;;;;;;;;;;;;;;5307209;26;19966;-88
2024/04/24 16:23:27;;;;;;;;;;;;;;;;;;5296230;26;19935;-88
2024/04/24 16:25:53;;;;;;;;;;;;;;;;;;5294049;26;19926;-86
2024/04/24 16:28:19;;;;;;;;;;;;;;;;;;5291636;26;19946;-87
2024/04/24 16:30:45;;;;;;;;;;;;;;;;;;5327207;26;20062;-86
2024/04/24 16:33:11;;;;;;;;;;;;;;;;;;5294839;26;19926;-87
2024/04/24 16:35:37;;;;;;;;;;;;;;;;;;5296978;26;19974;-83
2024/04/24 16:38:03;;;;;;;;;;;;;;;;;;5288972;26;19927;-83
2024/04/24 16:40:29;;;;;;;;;;;;;;;;;;5324149;26;19948;-86
2024/04/24 16:42:55;;;;;;;;;;;;;;;;;;5298800;26;20241;-87